sensor_id;sensor_type;location;lat;lon;timestamp;pressure;altitude;pressure_sealevel;temperature;humidity
60015;BME280;45867;52.480;6.056;2023-01-28T00:02:06;102994.03;;;1.23;100.00
60015;BME280;45867;52.480;6.056;2023-01-28T00:04:32;103008.94;;;1.31;100.00
60015;BME280;45867;52.480;6.056;2023-01-28T00:06:58;103005.28;;;1.24;100.00
60015;BME280;45867;52.480;6.056;2023-01-28T00:09:23;103003.34;;;1.26;100.00
60015;BME280;45867;52.480;6.056;2023-01-28T00:11:49;102993.34;;;1.21;100.00
60015;BME280;45867;52.480;6.056;2023-01-28T00:14:14;103013.31;;;1.30;100.00
60015;BME280;45867;52.480;6.056;2023-01-28T00:16:40;103007.59;;;1.27;100.00
60015;BME280;45867;52.480;6.056;2023-01-28T00:19:05;103013.63;;;1.27;100.00
60015;BME280;45867;52.480;6.056;2023-01-28T00:21:31;103015.44;;;1.27;100.00
60015;BME280;45867;52.480;6.056;2023-01-28T00:23:56;103010.56;;;1.14;100.00
60015;BME280;45867;52.480;6.056;2023-01-28T00:26:23;103012.38;;;1.14;100.00
60015;BME280;45867;52.480;6.056;2023-01-28T00:28:49;103029.53;;;1.16;100.00
60015;BME280;45867;52.480;6.056;2023-01-28T00:31:19;103026.91;;;1.16;100.00
60015;BME280;45867;52.480;6.056;2023-01-28T00:33:46;103023.41;;;1.07;100.00
60015;BME280;45867;52.480;6.056;2023-01-28T00:36:12;103008.88;;;1.05;100.00
60015;BME280;45867;52.480;6.056;2023-01-28T00:38:38;103013.09;;;1.06;100.00
60015;BME280;45867;52.480;6.056;2023-01-28T00:41:11;102999.91;;;1.07;100.00
60015;BME280;45867;52.480;6.056;2023-01-28T00:43:38;103009.44;;;1.17;100.00
60015;BME280;45867;52.480;6.056;2023-01-28T00:46:05;102999.16;;;1.15;100.00
60015;BME280;45867;52.480;6.056;2023-01-28T00:48:32;103006.25;;;1.23;100.00
60015;BME280;45867;52.480;6.056;2023-01-28T00:50:58;102998.19;;;1.16;100.00
60015;BME280;45867;52.480;6.056;2023-01-28T00:53:24;102987.66;;;1.08;100.00
60015;BME280;45867;52.480;6.056;2023-01-28T00:55:49;102991.41;;;1.05;100.00
60015;BME280;45867;52.480;6.056;2023-01-28T00:58:15;102999.47;;;1.12;100.00
60015;BME280;45867;52.480;6.056;2023-01-28T01:00:40;103006.31;;;1.13;100.00
60015;BME280;45867;52.480;6.056;2023-01-28T01:03:06;103000.03;;;1.06;100.00
60015;BME280;45867;52.480;6.056;2023-01-28T01:05:31;102995.81;;;1.05;100.00
60015;BME280;45867;52.480;6.056;2023-01-28T01:07:58;103002.66;;;1.06;100.00
60015;BME280;45867;52.480;6.056;2023-01-28T01:10:24;102996.31;;;1.08;100.00
60015;BME280;45867;52.480;6.056;2023-01-28T01:12:49;103004.97;;;1.09;100.00
60015;BME280;45867;52.480;6.056;2023-01-28T01:15:16;102986.47;;;1.02;100.00
60015;BME280;45867;52.480;6.056;2023-01-28T01:17:44;102989.78;;;1.04;100.00
60015;BME280;45867;52.480;6.056;2023-01-28T01:20:14;103011.16;;;1.08;100.00
60015;BME280;45867;52.480;6.056;2023-01-28T01:22:40;102994.75;;;0.98;100.00
60015;BME280;45867;52.480;6.056;2023-01-28T01:25:24;103012.47;;;1.04;100.00
60015;BME280;45867;52.480;6.056;2023-01-28T01:27:49;103009.47;;;0.99;100.00
60015;BME280;45867;52.480;6.056;2023-01-28T01:30:15;103018.63;;;1.03;100.00
60015;BME280;45867;52.480;6.056;2023-01-28T01:32:42;103017.94;;;1.01;100.00
60015;BME280;45867;52.480;6.056;2023-01-28T01:35:08;103023.34;;;0.99;100.00
60015;BME280;45867;52.480;6.056;2023-01-28T01:37:35;103020.72;;;0.99;100.00
60015;BME280;45867;52.480;6.056;2023-01-28T01:40:01;103032.16;;;0.98;100.00
60015;BME280;45867;52.480;6.056;2023-01-28T01:42:28;103033.09;;;0.97;100.00
60015;BME280;45867;52.480;6.056;2023-01-28T01:44:56;103031.31;;;0.98;100.00
60015;BME280;45867;52.480;6.056;2023-01-28T01:49:53;103025.09;;;0.81;100.00
60015;BME280;45867;52.480;6.056;2023-01-28T01:52:24;103030.84;;;0.84;100.00
60015;BME280;45867;52.480;6.056;2023-01-28T01:54:53;103024.16;;;0.82;100.00
60015;BME280;45867;52.480;6.056;2023-01-28T01:57:28;103032.31;;;0.87;100.00
60015;BME280;45867;52.480;6.056;2023-01-28T01:59:55;103038.00;;;0.82;100.00
60015;BME280;45867;52.480;6.056;2023-01-28T02:02:32;103016.22;;;0.74;100.00
60015;BME280;45867;52.480;6.056;2023-01-28T02:04:59;103025.69;;;0.75;100.00
60015;BME280;45867;52.480;6.056;2023-01-28T02:07:25;103030.22;;;0.73;100.00
60015;BME280;45867;52.480;6.056;2023-01-28T02:09:51;103034.50;;;0.74;100.00
60015;BME280;45867;52.480;6.056;2023-01-28T02:12:20;103041.47;;;0.73;100.00
60015;BME280;45867;52.480;6.056;2023-01-28T02:14:51;103054.50;;;0.83;100.00
60015;BME280;45867;52.480;6.056;2023-01-28T02:17:18;103048.44;;;0.82;100.00
60015;BME280;45867;52.480;6.056;2023-01-28T02:19:55;103052.00;;;0.81;100.00
60015;BME280;45867;52.480;6.056;2023-01-28T02:22:35;103051.63;;;0.76;100.00
60015;BME280;45867;52.480;6.056;2023-01-28T02:25:32;103051.63;;;0.76;100.00
60015;BME280;45867;52.480;6.056;2023-01-28T02:30:40;103050.41;;;0.71;100.00
60015;BME280;45867;52.480;6.056;2023-01-28T02:33:14;103033.56;;;0.65;100.00
60015;BME280;45867;52.480;6.056;2023-01-28T02:35:47;103049.19;;;0.75;100.00
60015;BME280;45867;52.480;6.056;2023-01-28T02:38:22;103044.84;;;0.65;100.00
60015;BME280;45867;52.480;6.056;2023-01-28T02:40:53;103053.47;;;0.66;100.00
60015;BME280;45867;52.480;6.056;2023-01-28T02:43:36;103057.81;;;0.75;100.00
60015;BME280;45867;52.480;6.056;2023-01-28T02:46:11;103053.88;;;0.71;100.00
60015;BME280;45867;52.480;6.056;2023-01-28T02:48:56;103053.19;;;0.69;100.00
60015;BME280;45867;52.480;6.056;2023-01-28T02:54:13;103054.97;;;0.69;100.00
60015;BME280;45867;52.480;6.056;2023-01-28T02:56:55;103039.66;;;0.56;100.00
60015;BME280;45867;52.480;6.056;2023-01-28T02:59:46;103044.28;;;0.62;100.00
60015;BME280;45867;52.480;6.056;2023-01-28T03:05:51;103033.06;;;0.52;100.00
60015;BME280;45867;52.480;6.056;2023-01-28T03:08:54;103035.56;;;0.53;100.00
60015;BME280;45867;52.480;6.056;2023-01-28T03:11:41;103038.38;;;0.60;100.00
60015;BME280;45867;52.480;6.056;2023-01-28T03:14:27;103039.06;;;0.62;100.00
60015;BME280;45867;52.480;6.056;2023-01-28T03:17:18;103032.69;;;0.74;100.00
60015;BME280;45867;52.480;6.056;2023-01-28T03:20:04;103032.59;;;0.66;100.00
60015;BME280;45867;52.480;6.056;2023-01-28T03:22:50;103024.22;;;0.62;100.00
60015;BME280;45867;52.480;6.056;2023-01-28T03:25:36;103032.34;;;0.59;100.00
60015;BME280;45867;52.480;6.056;2023-01-28T03:28:23;103029.34;;;0.54;100.00
60015;BME280;45867;52.480;6.056;2023-01-28T03:31:12;103023.78;;;0.49;100.00
60015;BME280;45867;52.480;6.056;2023-01-28T03:33:59;103041.75;;;0.52;100.00
60015;BME280;45867;52.480;6.056;2023-01-28T03:36:45;103037.63;;;0.50;100.00
60015;BME280;45867;52.480;6.056;2023-01-28T03:39:27;103044.06;;;0.55;100.00
60015;BME280;45867;52.480;6.056;2023-01-28T03:44:31;103041.75;;;0.52;100.00
60015;BME280;45867;52.480;6.056;2023-01-28T03:47:16;103033.75;;;0.54;100.00
60015;BME280;45867;52.480;6.056;2023-01-28T03:49:42;103037.34;;;0.53;100.00
60015;BME280;45867;52.480;6.056;2023-01-28T03:52:10;103026.28;;;0.41;100.00
60015;BME280;45867;52.480;6.056;2023-01-28T03:54:37;103027.81;;;0.34;100.00
60015;BME280;45867;52.480;6.056;2023-01-28T03:57:03;103048.19;;;0.48;100.00
60015;BME280;45867;52.480;6.056;2023-01-28T03:59:30;103038.19;;;0.43;100.00
60015;BME280;45867;52.480;6.056;2023-01-28T04:01:55;103027.66;;;0.35;100.00
60015;BME280;45867;52.480;6.056;2023-01-28T04:04:21;103016.69;;;0.32;100.00
60015;BME280;45867;52.480;6.056;2023-01-28T04:06:53;103036.56;;;0.42;100.00
60015;BME280;45867;52.480;6.056;2023-01-28T04:09:20;103035.34;;;0.37;100.00
60015;BME280;45867;52.480;6.056;2023-01-28T04:11:46;103030.81;;;0.39;100.00
60015;BME280;45867;52.480;6.056;2023-01-28T04:14:12;103046.00;;;0.43;100.00
60015;BME280;45867;52.480;6.056;2023-01-28T04:16:37;103053.84;;;0.43;100.00
60015;BME280;45867;52.480;6.056;2023-01-28T04:19:03;103056.31;;;0.45;100.00
60015;BME280;45867;52.480;6.056;2023-01-28T04:21:28;103054.81;;;0.42;100.00
60015;BME280;45867;52.480;6.056;2023-01-28T04:23:54;103056.44;;;0.43;100.00
60015;BME280;45867;52.480;6.056;2023-01-28T04:26:19;103063.44;;;0.53;100.00
60015;BME280;45867;52.480;6.056;2023-01-28T04:28:44;103060.94;;;0.51;100.00
60015;BME280;45867;52.480;6.056;2023-01-28T04:31:10;103061.25;;;0.48;100.00
60015;BME280;45867;52.480;6.056;2023-01-28T04:33:35;103066.22;;;0.41;100.00
60015;BME280;45867;52.480;6.056;2023-01-28T04:36:00;103075.41;;;0.46;100.00
60015;BME280;45867;52.480;6.056;2023-01-28T04:38:26;103071.28;;;0.43;100.00
60015;BME280;45867;52.480;6.056;2023-01-28T04:40:52;103073.06;;;0.42;100.00
60015;BME280;45867;52.480;6.056;2023-01-28T04:43:18;103066.75;;;0.45;100.00
60015;BME280;45867;52.480;6.056;2023-01-28T04:45:45;103069.22;;;0.47;100.00
60015;BME280;45867;52.480;6.056;2023-01-28T04:48:11;103071.09;;;0.54;100.00
60015;BME280;45867;52.480;6.056;2023-01-28T04:50:37;103071.25;;;0.53;100.00
60015;BME280;45867;52.480;6.056;2023-01-28T04:53:02;103060.84;;;0.43;100.00
60015;BME280;45867;52.480;6.056;2023-01-28T04:55:28;103063.91;;;0.38;100.00
60015;BME280;45867;52.480;6.056;2023-01-28T04:57:53;103039.75;;;0.36;100.00
60015;BME280;45867;52.480;6.056;2023-01-28T05:00:19;103031.13;;;0.26;100.00
60015;BME280;45867;52.480;6.056;2023-01-28T05:02:44;103028.69;;;0.25;100.00
60015;BME280;45867;52.480;6.056;2023-01-28T05:05:09;103037.13;;;0.36;100.00
60015;BME280;45867;52.480;6.056;2023-01-28T05:07:35;103041.66;;;0.34;100.00
60015;BME280;45867;52.480;6.056;2023-01-28T05:10:01;103041.84;;;0.33;100.00
60015;BME280;45867;52.480;6.056;2023-01-28T05:12:26;103030.59;;;0.22;100.00
60015;BME280;45867;52.480;6.056;2023-01-28T05:14:51;103044.56;;;0.31;100.00
60015;BME280;45867;52.480;6.056;2023-01-28T05:17:17;103038.97;;;0.26;100.00
60015;BME280;45867;52.480;6.056;2023-01-28T05:19:43;103035.53;;;0.26;100.00
60015;BME280;45867;52.480;6.056;2023-01-28T05:22:10;103030.59;;;0.22;100.00
60015;BME280;45867;52.480;6.056;2023-01-28T05:24:35;103050.50;;;0.24;100.00
60015;BME280;45867;52.480;6.056;2023-01-28T05:27:04;103054.75;;;0.25;100.00
60015;BME280;45867;52.480;6.056;2023-01-28T05:29:29;103060.91;;;0.24;100.00
60015;BME280;45867;52.480;6.056;2023-01-28T05:31:55;103059.97;;;0.25;100.00
60015;BME280;45867;52.480;6.056;2023-01-28T05:34:20;103061.22;;;0.20;100.00
60015;BME280;45867;52.480;6.056;2023-01-28T05:36:45;103056.28;;;0.17;100.00
60015;BME280;45867;52.480;6.056;2023-01-28T05:39:11;103059.03;;;0.16;100.00
60015;BME280;45867;52.480;6.056;2023-01-28T05:41:36;103060.28;;;0.12;100.00
60015;BME280;45867;52.480;6.056;2023-01-28T05:44:01;103063.41;;;0.15;100.00
60015;BME280;45867;52.480;6.056;2023-01-28T05:46:27;103053.28;;;0.12;100.00
60015;BME280;45867;52.480;6.056;2023-01-28T05:48:52;103056.81;;;0.21;100.00
60015;BME280;45867;52.480;6.056;2023-01-28T05:51:18;103055.47;;;0.17;100.00
60015;BME280;45867;52.480;6.056;2023-01-28T05:53:43;103048.28;;;0.29;100.00
60015;BME280;45867;52.480;6.056;2023-01-28T05:56:08;103032.13;;;0.15;100.00
60015;BME280;45867;52.480;6.056;2023-01-28T05:58:34;103042.84;;;0.12;100.00
60015;BME280;45867;52.480;6.056;2023-01-28T06:00:59;103050.78;;;0.11;100.00
60015;BME280;45867;52.480;6.056;2023-01-28T06:03:24;103050.13;;;0.09;100.00
60015;BME280;45867;52.480;6.056;2023-01-28T06:05:50;103039.72;;;-0.01;100.00
60015;BME280;45867;52.480;6.056;2023-01-28T06:08:15;103047.53;;;0.09;100.00
60015;BME280;45867;52.480;6.056;2023-01-28T06:10:41;103040.38;;;0.11;100.00
60015;BME280;45867;52.480;6.056;2023-01-28T06:13:06;103032.84;;;0.08;100.00
60015;BME280;45867;52.480;6.056;2023-01-28T06:15:32;103022.28;;;-0.01;100.00
60015;BME280;45867;52.480;6.056;2023-01-28T06:17:57;103018.34;;;-0.05;100.00
60015;BME280;45867;52.480;6.056;2023-01-28T06:20:23;103044.38;;;0.05;100.00
60015;BME280;45867;52.480;6.056;2023-01-28T06:22:52;103044.53;;;0.04;100.00
60015;BME280;45867;52.480;6.056;2023-01-28T06:25:18;103050.16;;;-0.01;100.00
60015;BME280;45867;52.480;6.056;2023-01-28T06:27:43;103053.72;;;-0.02;100.00
60015;BME280;45867;52.480;6.056;2023-01-28T06:30:09;103043.31;;;-0.02;100.00
60015;BME280;45867;52.480;6.056;2023-01-28T06:32:35;103049.06;;;0.02;100.00
60015;BME280;45867;52.480;6.056;2023-01-28T06:35:00;103036.06;;;-0.08;100.00
60015;BME280;45867;52.480;6.056;2023-01-28T06:37:26;103041.13;;;-0.07;100.00
60015;BME280;45867;52.480;6.056;2023-01-28T06:39:52;103067.28;;;0.11;100.00
60015;BME280;45867;52.480;6.056;2023-01-28T06:42:17;103057.69;;;0.02;100.00
60015;BME280;45867;52.480;6.056;2023-01-28T06:44:42;103066.06;;;-0.04;100.00
60015;BME280;45867;52.480;6.056;2023-01-28T06:47:08;103072.38;;;-0.07;100.00
60015;BME280;45867;52.480;6.056;2023-01-28T06:49:38;103064.16;;;-0.12;100.00
60015;BME280;45867;52.480;6.056;2023-01-28T06:52:03;103078.56;;;-0.08;100.00
60015;BME280;45867;52.480;6.056;2023-01-28T06:54:29;103088.84;;;-0.06;100.00
60015;BME280;45867;52.480;6.056;2023-01-28T06:56:54;103079.22;;;-0.06;100.00
60015;BME280;45867;52.480;6.056;2023-01-28T06:59:20;103074.75;;;-0.13;100.00
60015;BME280;45867;52.480;6.056;2023-01-28T07:01:45;103091.16;;;-0.03;100.00
60015;BME280;45867;52.480;6.056;2023-01-28T07:04:10;103078.53;;;0.02;100.00
60015;BME280;45867;52.480;6.056;2023-01-28T07:06:36;103065.66;;;0.01;100.00
60015;BME280;45867;52.480;6.056;2023-01-28T07:09:01;103068.56;;;-0.03;100.00
60015;BME280;45867;52.480;6.056;2023-01-28T07:11:26;103081.84;;;-0.06;100.00
60015;BME280;45867;52.480;6.056;2023-01-28T07:13:52;103092.84;;;-0.02;100.00
60015;BME280;45867;52.480;6.056;2023-01-28T07:16:17;103089.66;;;-0.06;100.00
60015;BME280;45867;52.480;6.056;2023-01-28T07:18:43;103077.75;;;-0.08;100.00
60015;BME280;45867;52.480;6.056;2023-01-28T07:21:08;103087.34;;;0.01;100.00
60015;BME280;45867;52.480;6.056;2023-01-28T07:23:33;103081.19;;;-0.08;100.00
60015;BME280;45867;52.480;6.056;2023-01-28T07:26:03;103098.72;;;0.00;100.00
60015;BME280;45867;52.480;6.056;2023-01-28T07:28:28;103100.09;;;-0.06;100.00
60015;BME280;45867;52.480;6.056;2023-01-28T07:30:54;103093.38;;;0.02;100.00
60015;BME280;45867;52.480;6.056;2023-01-28T07:33:19;103098.16;;;-0.04;100.00
60015;BME280;45867;52.480;6.056;2023-01-28T07:35:45;103109.28;;;-0.02;100.00
60015;BME280;45867;52.480;6.056;2023-01-28T07:38:11;103109.16;;;0.00;100.00
60015;BME280;45867;52.480;6.056;2023-01-28T07:40:36;103112.03;;;0.07;100.00
60015;BME280;45867;52.480;6.056;2023-01-28T07:43:02;103107.66;;;-0.03;100.00
60015;BME280;45867;52.480;6.056;2023-01-28T07:45:28;103110.66;;;-0.07;100.00
60015;BME280;45867;52.480;6.056;2023-01-28T07:48:00;103116.13;;;0.09;100.00
60015;BME280;45867;52.480;6.056;2023-01-28T07:50:26;103125.06;;;0.07;100.00
60015;BME280;45867;52.480;6.056;2023-01-28T07:52:54;103111.78;;;0.00;100.00
60015;BME280;45867;52.480;6.056;2023-01-28T07:55:20;103127.53;;;0.08;100.00
60015;BME280;45867;52.480;6.056;2023-01-28T07:57:56;103119.44;;;0.11;100.00
60015;BME280;45867;52.480;6.056;2023-01-28T08:00:23;103122.44;;;0.07;100.00
60015;BME280;45867;52.480;6.056;2023-01-28T08:02:49;103115.44;;;0.07;100.00
60015;BME280;45867;52.480;6.056;2023-01-28T08:05:20;103113.81;;;0.06;100.00
60015;BME280;45867;52.480;6.056;2023-01-28T08:07:46;103116.69;;;0.03;100.00
60015;BME280;45867;52.480;6.056;2023-01-28T08:10:13;103106.97;;;-0.05;100.00
60015;BME280;45867;52.480;6.056;2023-01-28T08:12:39;103117.09;;;-0.02;100.00
60015;BME280;45867;52.480;6.056;2023-01-28T08:15:05;103109.69;;;-0.06;100.00
60015;BME280;45867;52.480;6.056;2023-01-28T08:17:31;103122.06;;;-0.08;100.00
60015;BME280;45867;52.480;6.056;2023-01-28T08:19:57;103111.75;;;-0.19;100.00
60015;BME280;45867;52.480;6.056;2023-01-28T08:22:24;103108.47;;;-0.31;100.00
60015;BME280;45867;52.480;6.056;2023-01-28T08:24:58;103113.16;;;-0.35;100.00
60015;BME280;45867;52.480;6.056;2023-01-28T08:27:23;103123.97;;;-0.39;100.00
60015;BME280;45867;52.480;6.056;2023-01-28T08:29:49;103104.25;;;-0.52;100.00
60015;BME280;45867;52.480;6.056;2023-01-28T08:32:14;103108.34;;;-0.59;100.00
60015;BME280;45867;52.480;6.056;2023-01-28T08:34:40;103116.81;;;-0.67;100.00
60015;BME280;45867;52.480;6.056;2023-01-28T08:37:05;103102.41;;;-0.80;100.00
60015;BME280;45867;52.480;6.056;2023-01-28T08:39:31;103119.44;;;-0.76;100.00
60015;BME280;45867;52.480;6.056;2023-01-28T08:41:56;103116.25;;;-0.80;100.00
60015;BME280;45867;52.480;6.056;2023-01-28T08:44:21;103121.88;;;-0.84;100.00
60015;BME280;45867;52.480;6.056;2023-01-28T08:46:47;103141.63;;;-0.82;100.00
60015;BME280;45867;52.480;6.056;2023-01-28T08:49:12;103148.06;;;-0.67;100.00
60015;BME280;45867;52.480;6.056;2023-01-28T08:51:37;103148.66;;;-0.34;100.00
60015;BME280;45867;52.480;6.056;2023-01-28T08:54:03;103144.13;;;-0.12;100.00
60015;BME280;45867;52.480;6.056;2023-01-28T08:56:28;103145.50;;;0.02;100.00
60015;BME280;45867;52.480;6.056;2023-01-28T08:58:54;103154.28;;;0.01;100.00
60015;BME280;45867;52.480;6.056;2023-01-28T09:01:20;103157.84;;;0.09;100.00
60015;BME280;45867;52.480;6.056;2023-01-28T09:03:45;103151.09;;;0.26;100.00
60015;BME280;45867;52.480;6.056;2023-01-28T09:06:10;103152.97;;;0.43;100.00
60015;BME280;45867;52.480;6.056;2023-01-28T09:08:36;103147.16;;;0.59;100.00
60015;BME280;45867;52.480;6.056;2023-01-28T09:11:01;103148.88;;;0.78;100.00
60015;BME280;45867;52.480;6.056;2023-01-28T09:13:27;103169.25;;;1.02;100.00
60015;BME280;45867;52.480;6.056;2023-01-28T09:15:53;103180.88;;;1.18;100.00
60015;BME280;45867;52.480;6.056;2023-01-28T09:18:18;103156.72;;;1.06;100.00
60015;BME280;45867;52.480;6.056;2023-01-28T09:20:43;103174.88;;;1.25;100.00
60015;BME280;45867;52.480;6.056;2023-01-28T09:23:09;103162.91;;;1.32;100.00
60015;BME280;45867;52.480;6.056;2023-01-28T09:25:35;103171.66;;;1.59;100.00
60015;BME280;45867;52.480;6.056;2023-01-28T09:28:01;103170.31;;;1.55;100.00
60015;BME280;45867;52.480;6.056;2023-01-28T09:30:27;103166.31;;;1.33;100.00
60015;BME280;45867;52.480;6.056;2023-01-28T09:32:54;103183.66;;;1.34;100.00
60015;BME280;45867;52.480;6.056;2023-01-28T09:35:20;103184.41;;;1.17;100.00
60015;BME280;45867;52.480;6.056;2023-01-28T09:37:46;103184.31;;;1.08;100.00
60015;BME280;45867;52.480;6.056;2023-01-28T09:40:23;103176.50;;;1.08;100.00
60015;BME280;45867;52.480;6.056;2023-01-28T09:43:04;103183.31;;;1.19;100.00
60015;BME280;45867;52.480;6.056;2023-01-28T09:45:37;103179.13;;;1.54;100.00
60015;BME280;45867;52.480;6.056;2023-01-28T09:48:11;103178.53;;;1.78;100.00
60015;BME280;45867;52.480;6.056;2023-01-28T09:50:40;103200.88;;;2.08;100.00
60015;BME280;45867;52.480;6.056;2023-01-28T09:53:09;103197.75;;;2.05;100.00
60015;BME280;45867;52.480;6.056;2023-01-28T09:55:38;103207.91;;;1.90;100.00
60015;BME280;45867;52.480;6.056;2023-01-28T09:58:09;103194.97;;;2.06;100.00
60015;BME280;45867;52.480;6.056;2023-01-28T10:01:09;103198.00;;;2.19;100.00
60015;BME280;45867;52.480;6.056;2023-01-28T10:03:53;103185.56;;;2.39;100.00
60015;BME280;45867;52.480;6.056;2023-01-28T10:14:57;103195.81;;;2.85;100.00
60015;BME280;45867;52.480;6.056;2023-01-28T10:17:42;103196.03;;;3.00;100.00
60015;BME280;45867;52.480;6.056;2023-01-28T10:22:42;103190.00;;;3.50;100.00
60015;BME280;45867;52.480;6.056;2023-01-28T10:25:19;103185.47;;;3.18;100.00
60015;BME280;45867;52.480;6.056;2023-01-28T10:27:47;103181.41;;;2.89;100.00
60015;BME280;45867;52.480;6.056;2023-01-28T10:30:18;103173.94;;;3.02;100.00
60015;BME280;45867;52.480;6.056;2023-01-28T10:33:44;103168.88;;;3.01;100.00
60015;BME280;45867;52.480;6.056;2023-01-28T10:36:05;103181.69;;;2.78;100.00
60015;BME280;45867;52.480;6.056;2023-01-28T10:38:32;103180.75;;;2.53;100.00
60015;BME280;45867;52.480;6.056;2023-01-28T10:41:01;103167.31;;;2.21;100.00
60015;BME280;45867;52.480;6.056;2023-01-28T10:43:36;103170.16;;;2.10;100.00
60015;BME280;45867;52.480;6.056;2023-01-28T10:46:25;103164.63;;;1.95;100.00
60015;BME280;45867;52.480;6.056;2023-01-28T10:49:05;103163.88;;;1.85;100.00
60015;BME280;45867;52.480;6.056;2023-01-28T10:51:38;103146.44;;;1.86;100.00
60015;BME280;45867;52.480;6.056;2023-01-28T10:54:20;103141.84;;;1.88;100.00
60015;BME280;45867;52.480;6.056;2023-01-28T10:56:48;103136.84;;;1.76;100.00
60015;BME280;45867;52.480;6.056;2023-01-28T10:59:34;103129.13;;;1.67;100.00
60015;BME280;45867;52.480;6.056;2023-01-28T11:02:03;103122.66;;;1.79;100.00
60015;BME280;45867;52.480;6.056;2023-01-28T11:04:32;103108.47;;;1.82;100.00
60015;BME280;45867;52.480;6.056;2023-01-28T11:07:13;103088.25;;;1.84;100.00
60015;BME280;45867;52.480;6.056;2023-01-28T11:09:44;103097.09;;;1.91;100.00
60015;BME280;45867;52.480;6.056;2023-01-28T11:14:50;103086.94;;;1.88;100.00
60015;BME280;45867;52.480;6.056;2023-01-28T11:17:17;103064.19;;;1.80;100.00
60015;BME280;45867;52.480;6.056;2023-01-28T11:19:44;103071.56;;;1.85;100.00
60015;BME280;45867;52.480;6.056;2023-01-28T11:22:22;103068.88;;;1.94;100.00
60015;BME280;45867;52.480;6.056;2023-01-28T11:24:49;103062.50;;;2.23;100.00
60015;BME280;45867;52.480;6.056;2023-01-28T11:27:16;103065.94;;;3.08;100.00
60015;BME280;45867;52.480;6.056;2023-01-28T11:29:43;103045.47;;;4.81;100.00
60015;BME280;45867;52.480;6.056;2023-01-28T11:32:24;103057.50;;;7.07;100.00
60015;BME280;45867;52.480;6.056;2023-01-28T11:34:52;103055.94;;;8.60;100.00
60015;BME280;45867;52.480;6.056;2023-01-28T11:37:23;103063.69;;;7.64;100.00
60015;BME280;45867;52.480;6.056;2023-01-28T11:40:00;103062.06;;;6.77;100.00
60015;BME280;45867;52.480;6.056;2023-01-28T11:42:26;103074.91;;;5.83;100.00
60015;BME280;45867;52.480;6.056;2023-01-28T11:44:52;103077.69;;;4.75;100.00
60015;BME280;45867;52.480;6.056;2023-01-28T11:47:29;103090.84;;;4.11;100.00
60015;BME280;45867;52.480;6.056;2023-01-28T11:50:09;103086.44;;;3.70;100.00
60015;BME280;45867;52.480;6.056;2023-01-28T11:53:11;103087.41;;;3.37;100.00
60015;BME280;45867;52.480;6.056;2023-01-28T11:56:26;103077.25;;;3.17;100.00
60015;BME280;45867;52.480;6.056;2023-01-28T11:59:17;103075.44;;;3.26;100.00
60015;BME280;45867;52.480;6.056;2023-01-28T12:02:03;103077.00;;;4.25;100.00
60015;BME280;45867;52.480;6.056;2023-01-28T12:07:44;103086.69;;;7.27;100.00
60015;BME280;45867;52.480;6.056;2023-01-28T12:10:28;103087.59;;;8.47;100.00
60015;BME280;45867;52.480;6.056;2023-01-28T12:13:04;103085.63;;;9.30;100.00
60015;BME280;45867;52.480;6.056;2023-01-28T12:18:08;103095.16;;;9.85;100.00
60015;BME280;45867;52.480;6.056;2023-01-28T12:21:24;103088.63;;;11.42;100.00
60015;BME280;45867;52.480;6.056;2023-01-28T12:24:03;103081.31;;;12.92;99.45
60015;BME280;45867;52.480;6.056;2023-01-28T12:27:00;103076.03;;;13.69;77.74
60015;BME280;45867;52.480;6.056;2023-01-28T12:35:23;103081.34;;;15.64;67.52
60015;BME280;45867;52.480;6.056;2023-01-28T12:45:59;103048.16;;;15.09;63.51
60015;BME280;45867;52.480;6.056;2023-01-28T12:48:41;103037.19;;;14.49;55.86
60015;BME280;45867;52.480;6.056;2023-01-28T12:51:29;103023.44;;;16.63;59.83
60015;BME280;45867;52.480;6.056;2023-01-28T12:56:47;103007.56;;;17.16;53.04
60015;BME280;45867;52.480;6.056;2023-01-28T13:01:48;103004.09;;;16.78;50.83
60015;BME280;45867;52.480;6.056;2023-01-28T13:04:31;103012.41;;;14.36;52.04
60015;BME280;45867;52.480;6.056;2023-01-28T13:07:03;102991.06;;;14.36;64.96
60015;BME280;45867;52.480;6.056;2023-01-28T13:09:33;102997.28;;;13.73;60.32
60015;BME280;45867;52.480;6.056;2023-01-28T13:12:00;102985.03;;;15.20;60.31
60015;BME280;45867;52.480;6.056;2023-01-28T13:14:32;102977.13;;;15.86;57.55
60015;BME280;45867;52.480;6.056;2023-01-28T13:17:26;102988.38;;;15.49;47.88
60015;BME280;45867;52.480;6.056;2023-01-28T13:19:52;102981.38;;;16.31;51.78
60015;BME280;45867;52.480;6.056;2023-01-28T13:22:28;103001.97;;;16.85;48.67
60015;BME280;45867;52.480;6.056;2023-01-28T13:24:54;102995.66;;;14.81;47.83
60015;BME280;45867;52.480;6.056;2023-01-28T13:27:26;103004.91;;;13.81;56.30
60015;BME280;45867;52.480;6.056;2023-01-28T13:30:06;103008.84;;;14.59;60.28
60015;BME280;45867;52.480;6.056;2023-01-28T13:32:54;102992.81;;;16.00;54.21
60015;BME280;45867;52.480;6.056;2023-01-28T13:35:35;103012.41;;;16.05;48.23
60015;BME280;45867;52.480;6.056;2023-01-28T13:38:18;102998.88;;;16.98;48.92
60015;BME280;45867;52.480;6.056;2023-01-28T13:40:56;103005.34;;;17.45;49.42
60015;BME280;45867;52.480;6.056;2023-01-28T13:43:39;103005.00;;;17.31;48.42
60015;BME280;45867;52.480;6.056;2023-01-28T13:46:11;103004.31;;;17.51;47.70
60015;BME280;45867;52.480;6.056;2023-01-28T13:48:49;103002.19;;;17.11;46.56
60015;BME280;45867;52.480;6.056;2023-01-28T13:51:21;103007.28;;;17.12;46.00
60015;BME280;45867;52.480;6.056;2023-01-28T13:54:01;103009.00;;;15.15;49.67
60015;BME280;45867;52.480;6.056;2023-01-28T13:56:38;103019.47;;;15.72;52.36
60015;BME280;45867;52.480;6.056;2023-01-28T14:07:25;103026.03;;;13.59;60.32